createdAt,value
2022-08-10T00:00:53.533Z,18.08
2022-08-10T00:03:20.658Z,18.16
2022-08-10T00:05:52.722Z,18.01
2022-08-10T00:08:24.140Z,17.95
2022-08-10T00:10:56.480Z,17.87
2022-08-10T00:13:25.446Z,17.87
2022-08-10T00:15:54.889Z,17.85
2022-08-10T00:18:34.431Z,17.83
2022-08-10T00:21:05.643Z,17.84
2022-08-10T00:23:33.496Z,17.85
2022-08-10T00:26:00.761Z,17.73
2022-08-10T00:28:27.933Z,17.72
2022-08-10T00:30:56.060Z,17.86
2022-08-10T00:33:23.234Z,17.76
2022-08-10T00:35:50.765Z,17.74
2022-08-10T00:38:18.052Z,17.67
2022-08-10T00:40:46.165Z,17.60
2022-08-10T00:43:13.342Z,17.61
2022-08-10T00:45:40.476Z,17.63
2022-08-10T00:48:07.652Z,17.52
2022-08-10T00:50:34.880Z,17.41
2022-08-10T00:53:02.360Z,17.31
2022-08-10T00:55:29.963Z,17.32
2022-08-10T00:57:57.763Z,17.36
2022-08-10T01:00:25.129Z,17.31
2022-08-10T01:02:53.308Z,17.26
2022-08-10T01:05:21.941Z,17.23
2022-08-10T01:08:15.182Z,17.11
2022-08-10T01:10:55.975Z,16.93
2022-08-10T01:13:29.006Z,16.85
2022-08-10T01:16:23.263Z,16.80
2022-08-10T01:19:15.209Z,16.60
2022-08-10T01:21:54.250Z,16.54
2022-08-10T01:24:39.169Z,16.42
2022-08-10T01:27:43.645Z,16.37
2022-08-10T01:30:18.920Z,16.28
2022-08-10T01:33:00.254Z,16.23
2022-08-10T01:35:45.273Z,16.25
2022-08-10T01:38:20.471Z,16.19
2022-08-10T01:40:54.969Z,16.17
2022-08-10T01:43:25.250Z,16.18
2022-08-10T01:45:55.903Z,16.03
2022-08-10T01:48:31.684Z,15.86
2022-08-10T01:51:11.147Z,15.93
2022-08-10T01:53:54.394Z,15.84
2022-08-10T01:56:24.394Z,15.80
2022-08-10T01:58:56.884Z,15.84
2022-08-10T02:01:28.439Z,15.82
2022-08-10T02:04:05.166Z,15.84
2022-08-10T02:06:45.190Z,15.66
2022-08-10T02:12:08.585Z,15.48
2022-08-10T02:14:51.007Z,15.36
2022-08-10T02:17:57.511Z,15.36
2022-08-10T02:20:20.474Z,15.27
2022-08-10T02:22:55.085Z,15.20
2022-08-10T02:25:41.537Z,15.15
2022-08-10T02:28:29.992Z,15.11
2022-08-10T02:31:23.078Z,15.10
2022-08-10T02:33:57.268Z,15.23
2022-08-10T02:36:29.561Z,15.22
2022-08-10T02:39:01.386Z,15.26
2022-08-10T02:45:01.644Z,15.28
2022-08-10T02:45:17.812Z,15.25
2022-08-10T02:47:30.247Z,15.34
2022-08-10T02:50:31.813Z,15.28
2022-08-10T02:53:04.198Z,15.01
2022-08-10T02:55:49.548Z,14.85
2022-08-10T02:58:26.332Z,14.68
2022-08-10T03:00:56.567Z,14.62
2022-08-10T03:03:29.615Z,14.49
2022-08-10T03:06:03.640Z,14.29
2022-08-10T03:08:34.616Z,14.19
2022-08-10T03:11:04.922Z,14.25
2022-08-10T03:13:33.756Z,14.31
2022-08-10T03:16:01.652Z,14.44
2022-08-10T03:18:29.548Z,14.55
2022-08-10T03:20:57.630Z,14.49
2022-08-10T03:23:26.947Z,14.53
2022-08-10T03:25:57.115Z,14.47
2022-08-10T03:28:27.682Z,14.33
2022-08-10T03:30:58.117Z,14.33
2022-08-10T03:33:29.043Z,14.38
2022-08-10T03:36:43.620Z,14.36
2022-08-10T03:38:46.204Z,14.31
2022-08-10T03:41:15.902Z,14.33
2022-08-10T03:43:48.206Z,14.36
2022-08-10T03:46:19.055Z,14.37
2022-08-10T03:48:50.233Z,14.35
2022-08-10T03:51:22.599Z,14.27
2022-08-10T03:54:03.818Z,14.25
2022-08-10T03:56:36.519Z,14.18
2022-08-10T03:59:04.675Z,14.24
2022-08-10T04:02:52.195Z,14.14
2022-08-10T04:04:24.080Z,14.08
2022-08-10T04:06:55.119Z,14.09
2022-08-10T04:09:29.690Z,14.16
2022-08-10T04:12:15.454Z,14.26
2022-08-10T04:14:50.713Z,14.34
2022-08-10T04:18:02.810Z,14.42
2022-08-10T04:20:29.968Z,14.50
2022-08-10T04:23:07.876Z,14.44
2022-08-10T04:25:36.633Z,14.64
2022-08-10T04:28:04.206Z,14.73
2022-08-10T04:30:32.450Z,14.71
2022-08-10T04:33:03.343Z,14.76
2022-08-10T04:35:32.479Z,14.79
2022-08-10T04:38:02.174Z,14.59
2022-08-10T04:40:31.025Z,14.65
2022-08-10T04:43:04.430Z,14.56
2022-08-10T04:45:47.547Z,14.55
2022-08-10T04:48:41.201Z,14.57
2022-08-10T04:51:20.447Z,14.34
2022-08-10T04:54:03.747Z,14.53
2022-08-10T04:56:38.580Z,14.53
2022-08-10T04:59:07.914Z,14.59
2022-08-10T05:02:21.590Z,14.61
2022-08-10T05:04:35.095Z,14.73
2022-08-10T05:07:10.960Z,14.88
2022-08-10T05:10:01.828Z,14.99
2022-08-10T05:12:27.733Z,14.99
2022-08-10T05:14:55.524Z,15.22
2022-08-10T05:17:23.778Z,15.36
2022-08-10T05:20:04.089Z,15.37
2022-08-10T05:22:41.789Z,15.54
2022-08-10T05:25:12.404Z,15.48
2022-08-10T05:27:41.196Z,15.48
2022-08-10T05:30:11.161Z,15.48
2022-08-10T05:32:56.960Z,15.69
2022-08-10T05:35:26.917Z,15.74
2022-08-10T05:38:12.330Z,15.86
2022-08-10T05:49:13.923Z,16.16
2022-08-10T05:51:58.553Z,16.33
2022-08-10T06:08:44.300Z,17.70
2022-08-10T06:12:26.639Z,17.94
2022-08-10T06:14:22.676Z,18.06
2022-08-10T06:16:57.873Z,18.12
2022-08-10T06:19:26.001Z,18.60
2022-08-10T06:22:00.730Z,18.76
2022-08-10T06:24:46.469Z,18.84
2022-08-10T06:27:34.278Z,19.16
2022-08-10T06:30:02.031Z,19.39
2022-08-10T06:32:30.931Z,19.58
2022-08-10T06:35:00.528Z,19.75
2022-08-10T06:37:29.425Z,19.90
2022-08-10T06:39:56.770Z,19.86
2022-08-10T06:42:34.255Z,20.16
2022-08-10T06:45:15.508Z,20.47
2022-08-10T06:47:59.612Z,20.54
2022-08-10T06:53:21.923Z,20.40
2022-08-10T06:56:02.513Z,20.45
2022-08-10T06:58:36.838Z,20.39
2022-08-10T07:01:09.357Z,20.55
2022-08-10T07:03:44.836Z,20.65
2022-08-10T07:06:14.000Z,20.69
2022-08-10T07:08:42.229Z,20.68
2022-08-10T07:11:12.143Z,20.84
2022-08-10T07:14:16.083Z,21.12
2022-08-10T07:16:31.104Z,21.12
2022-08-10T07:19:00.407Z,21.13
2022-08-10T07:21:29.045Z,21.29
2022-08-10T07:24:00.823Z,21.29
2022-08-10T07:26:30.750Z,20.91
2022-08-10T07:28:59.287Z,20.57
2022-08-10T07:31:36.137Z,20.49
2022-08-10T07:34:28.911Z,20.26
2022-08-10T07:37:03.648Z,20.13
2022-08-10T07:39:58.265Z,20.34
2022-08-10T07:42:23.109Z,20.79
2022-08-10T07:44:51.424Z,21.14
2022-08-10T07:47:52.312Z,21.39
2022-08-10T07:50:12.872Z,21.73
2022-08-10T07:52:40.997Z,22.05
2022-08-10T07:55:14.435Z,22.22
2022-08-10T07:57:44.443Z,22.12
2022-08-10T08:00:12.647Z,22.26
2022-08-10T08:02:45.026Z,22.55
2022-08-10T08:05:57.462Z,22.73
2022-08-10T08:08:03.857Z,22.83
2022-08-10T08:10:31.727Z,22.94
2022-08-10T08:13:01.318Z,23.02
2022-08-10T08:16:16.720Z,23.33
2022-08-10T08:18:23.008Z,23.41
2022-08-10T08:20:54.394Z,23.59
2022-08-10T08:24:09.124Z,23.72
2022-08-10T08:26:11.748Z,23.76
2022-08-10T08:28:45.722Z,24.02
2022-08-10T08:31:15.938Z,24.02
2022-08-10T08:33:45.502Z,24.11
2022-08-10T08:36:15.924Z,24.20
2022-08-10T08:38:44.026Z,24.31
2022-08-10T08:41:52.877Z,24.38
2022-08-10T08:44:38.869Z,24.59
2022-08-10T08:48:03.279Z,24.73
2022-08-10T08:50:45.569Z,24.76
2022-08-10T08:53:21.842Z,24.82
2022-08-10T08:56:21.948Z,24.73
2022-08-10T08:59:08.748Z,24.86
2022-08-10T09:01:49.969Z,24.97
2022-08-10T09:04:55.709Z,25.16
2022-08-10T09:08:08.198Z,25.23
2022-08-10T09:10:52.735Z,25.36
2022-08-10T09:13:27.381Z,25.46
2022-08-10T09:16:13.306Z,25.52
2022-08-10T09:18:56.024Z,25.55
2022-08-10T09:21:43.165Z,25.51
2022-08-10T09:24:46.298Z,25.63
2022-08-10T09:27:24.298Z,25.94
2022-08-10T09:29:57.224Z,26.10
2022-08-10T09:36:15.122Z,25.98
2022-08-10T09:36:27.000Z,26.01
2022-08-10T09:38:37.989Z,25.92
2022-08-10T09:41:16.286Z,25.96
2022-08-10T09:43:56.849Z,26.13
2022-08-10T09:46:59.189Z,26.32
2022-08-10T09:50:02.244Z,26.25
2022-08-10T09:52:43.547Z,26.34
2022-08-10T09:56:19.250Z,26.46
2022-08-10T09:59:29.323Z,26.79
2022-08-10T10:02:18.164Z,26.71
2022-08-10T10:04:54.443Z,26.74
2022-08-10T10:07:29.229Z,26.93
2022-08-10T10:10:07.883Z,27.25
2022-08-10T10:12:55.527Z,27.17
2022-08-10T10:15:50.836Z,27.47
2022-08-10T10:18:34.578Z,27.62
2022-08-10T10:21:07.687Z,27.63
2022-08-10T10:24:21.095Z,27.70
2022-08-10T10:26:52.961Z,27.48
2022-08-10T10:29:57.394Z,27.12
2022-08-10T10:32:47.552Z,26.60
2022-08-10T10:35:23.656Z,26.10
2022-08-10T10:38:01.064Z,25.74
2022-08-10T10:41:03.195Z,25.70
2022-08-10T10:43:47.281Z,26.33
2022-08-10T10:46:38.971Z,26.81
2022-08-10T10:49:20.789Z,26.38
2022-08-10T10:52:02.232Z,26.54
2022-08-10T10:54:39.293Z,26.48
2022-08-10T10:57:18.491Z,26.26
2022-08-10T11:00:05.695Z,26.30
2022-08-10T11:02:55.705Z,26.23
2022-08-10T11:06:00.265Z,26.23
2022-08-10T11:08:34.421Z,26.41
2022-08-10T11:11:25.327Z,26.58
2022-08-10T11:14:25.577Z,26.64
2022-08-10T11:17:18.807Z,26.66
2022-08-10T11:20:04.345Z,26.61
2022-08-10T11:22:48.291Z,26.87
2022-08-10T11:25:27.586Z,27.12
2022-08-10T11:28:20.505Z,27.31
2022-08-10T11:31:05.240Z,27.40
2022-08-10T11:34:47.318Z,27.51
2022-08-10T11:37:22.151Z,27.72
2022-08-10T11:40:15.454Z,27.76
2022-08-10T11:42:51.235Z,27.63
2022-08-10T11:45:25.459Z,27.91
2022-08-10T11:48:52.807Z,27.96
2022-08-10T11:51:18.952Z,28.05
2022-08-10T11:53:57.081Z,28.13
2022-08-10T11:56:31.700Z,28.24
2022-08-10T11:59:17.680Z,27.92
2022-08-10T12:01:47.604Z,27.59
2022-08-10T12:04:16.560Z,27.47
2022-08-10T12:06:55.531Z,27.45
2022-08-10T12:10:09.836Z,27.10
2022-08-10T12:12:17.400Z,27.26
2022-08-10T12:15:00.209Z,27.42
2022-08-10T12:17:33.991Z,27.96
2022-08-10T12:20:17.620Z,28.15
2022-08-10T12:23:22.336Z,28.12
2022-08-10T12:26:02.391Z,27.86
2022-08-10T12:29:08.868Z,27.97
2022-08-10T12:31:54.301Z,27.54
2022-08-10T12:34:34.591Z,27.37
2022-08-10T12:37:35.489Z,26.98
2022-08-10T12:40:38.194Z,26.68
2022-08-10T12:44:06.788Z,26.56
2022-08-10T12:46:20.387Z,26.48
2022-08-10T12:48:57.319Z,26.51
2022-08-10T12:51:30.434Z,26.58
2022-08-10T12:54:32.743Z,26.65
2022-08-10T12:57:02.258Z,26.85
2022-08-10T12:59:31.682Z,26.85
2022-08-10T13:02:10.386Z,27.01
2022-08-10T13:04:42.385Z,26.94
2022-08-10T13:07:10.479Z,26.68
2022-08-10T13:10:18.284Z,26.74
2022-08-10T13:12:52.171Z,26.77
2022-08-10T13:15:50.113Z,26.63
2022-08-10T13:18:18.401Z,26.76
2022-08-10T13:20:51.598Z,26.77
2022-08-10T13:23:30.015Z,26.73
2022-08-10T13:26:01.000Z,26.74
2022-08-10T13:28:39.932Z,26.71
2022-08-10T13:31:16.380Z,26.57
2022-08-10T13:34:38.906Z,26.69
2022-08-10T13:36:40.229Z,26.54
2022-08-10T13:39:08.568Z,26.36
2022-08-10T13:41:39.870Z,26.18
2022-08-10T13:44:09.830Z,26.21
2022-08-10T13:46:40.466Z,26.18
2022-08-10T13:49:11.083Z,26.01
2022-08-10T13:51:53.973Z,26.04
2022-08-10T13:54:36.007Z,26.02
2022-08-10T13:57:05.038Z,26.00
2022-08-10T14:00:34.288Z,26.04
2022-08-10T14:02:25.664Z,26.13
2022-08-10T14:04:55.976Z,26.12
2022-08-10T14:07:24.117Z,26.31
2022-08-10T14:09:53.723Z,26.55
2022-08-10T14:12:32.191Z,26.83
2022-08-10T14:15:04.897Z,26.95
2022-08-10T14:17:34.970Z,27.35
2022-08-10T14:20:05.581Z,28.01
2022-08-10T14:22:37.731Z,28.25
2022-08-10T14:25:13.312Z,28.23
2022-08-10T14:28:03.700Z,28.52
2022-08-10T14:30:33.409Z,28.38
2022-08-10T14:33:04.520Z,28.19
2022-08-10T14:36:19.384Z,28.13
2022-08-10T14:38:28.880Z,28.24
2022-08-10T14:40:59.624Z,27.83
2022-08-10T14:43:33.675Z,27.75
2022-08-10T14:46:18.078Z,27.70
2022-08-10T14:48:48.346Z,27.85
2022-08-10T14:51:19.445Z,27.53
2022-08-10T14:53:54.140Z,27.43
2022-08-10T14:56:32.465Z,27.43
2022-08-10T14:59:06.893Z,27.16
2022-08-10T15:02:37.752Z,27.01
2022-08-10T15:04:30.404Z,26.77
2022-08-10T15:07:20.607Z,26.90
2022-08-10T15:10:00.496Z,26.62
2022-08-10T15:29:29.196Z,26.62
2022-08-10T15:32:25.463Z,26.65
2022-08-10T15:35:13.510Z,26.68
2022-08-10T15:37:45.493Z,26.65
2022-08-10T15:40:25.691Z,26.62
2022-08-10T15:43:20.279Z,26.76
2022-08-10T15:46:16.079Z,27.12
2022-08-10T15:48:48.508Z,27.29
2022-08-10T15:51:28.471Z,27.48
2022-08-10T15:54:13.856Z,27.32
2022-08-10T15:56:49.362Z,26.92
2022-08-10T15:59:27.034Z,26.52
2022-08-10T16:02:13.066Z,26.51
2022-08-10T16:04:54.134Z,26.33
2022-08-10T16:07:45.358Z,26.21
2022-08-10T16:10:27.354Z,26.22
2022-08-10T16:13:59.321Z,26.00
2022-08-10T16:15:58.020Z,26.04
2022-08-10T16:18:28.318Z,26.17
2022-08-10T16:21:00.921Z,26.34
2022-08-10T16:23:32.625Z,26.55
2022-08-10T16:26:14.508Z,26.73
2022-08-10T16:28:48.150Z,26.91
2022-08-10T16:31:27.075Z,26.92
2022-08-10T16:33:58.838Z,26.91
2022-08-10T16:36:37.253Z,26.95
2022-08-10T16:39:05.675Z,26.90
2022-08-10T16:42:04.081Z,26.97
2022-08-10T16:44:28.752Z,26.86
2022-08-10T16:46:58.105Z,26.75
2022-08-10T16:49:27.461Z,26.77
2022-08-10T16:51:56.449Z,26.70
2022-08-10T16:54:27.523Z,26.74
2022-08-10T16:57:02.118Z,26.77
2022-08-10T16:59:40.549Z,26.69
2022-08-10T17:02:14.178Z,26.52
2022-08-10T17:04:44.027Z,26.44
2022-08-10T17:07:16.079Z,26.42
2022-08-10T17:09:50.752Z,26.28
2022-08-10T17:12:23.584Z,26.20
2022-08-10T17:15:09.833Z,26.15
2022-08-10T17:17:44.359Z,26.13
2022-08-10T17:20:31.140Z,25.96
2022-08-10T17:23:06.804Z,26.01
2022-08-10T17:25:45.935Z,26.00
2022-08-10T17:28:33.055Z,25.93
2022-08-10T17:31:38.099Z,25.89
2022-08-10T17:34:01.681Z,25.93
2022-08-10T17:36:34.520Z,25.86
2022-08-10T17:39:03.656Z,25.66
2022-08-10T17:41:33.964Z,25.59
2022-08-10T17:44:05.124Z,25.43
2022-08-10T17:46:38.578Z,25.29
2022-08-10T17:49:08.950Z,25.17
2022-08-10T17:51:39.563Z,25.06
2022-08-10T17:54:23.764Z,24.97
2022-08-10T17:56:52.350Z,24.89
2022-08-10T17:59:24.864Z,24.85
2022-08-10T18:02:02.239Z,24.78
2022-08-10T18:04:41.401Z,24.63
2022-08-10T18:07:11.681Z,24.60
2022-08-10T18:09:51.665Z,24.42
2022-08-10T18:12:30.887Z,24.33
2022-08-10T18:15:08.421Z,24.20
2022-08-10T18:17:40.819Z,24.11
2022-08-10T18:20:10.008Z,24.04
2022-08-10T18:22:44.762Z,23.85
2022-08-10T18:25:26.258Z,23.75
2022-08-10T18:28:03.639Z,23.70
2022-08-10T18:30:45.099Z,23.47
2022-08-10T18:33:14.347Z,23.29
2022-08-10T18:35:44.751Z,23.19
2022-08-10T18:38:13.464Z,23.18
2022-08-10T18:40:45.084Z,23.07
2022-08-10T18:44:06.820Z,22.94
2022-08-10T18:46:09.215Z,22.85
2022-08-10T18:48:42.094Z,22.79
2022-08-10T18:51:12.319Z,22.84
2022-08-10T18:53:50.742Z,22.94
2022-08-10T18:56:20.737Z,22.94
2022-08-10T18:58:50.899Z,22.89
2022-08-10T19:01:48.579Z,22.87
2022-08-10T19:04:15.685Z,22.91
2022-08-10T19:07:01.477Z,22.94
2022-08-10T19:09:46.737Z,22.96
2022-08-10T19:12:31.711Z,22.90
2022-08-10T19:15:23.011Z,22.72
2022-08-10T19:18:13.816Z,22.65
2022-08-10T19:20:53.867Z,22.76
2022-08-10T19:23:34.158Z,22.92
2022-08-10T19:26:41.581Z,22.87
2022-08-10T19:30:07.985Z,22.81
2022-08-10T19:32:50.891Z,22.86
2022-08-10T19:36:04.516Z,22.71
2022-08-10T19:38:52.535Z,22.71
2022-08-10T19:41:44.783Z,22.59
2022-08-10T19:44:35.874Z,22.75
2022-08-10T19:47:11.928Z,22.74
2022-08-10T19:49:55.309Z,22.90
2022-08-10T19:52:40.660Z,23.05
2022-08-10T19:55:50.541Z,23.04
2022-08-10T19:58:27.941Z,23.12
2022-08-10T20:01:06.920Z,23.09
2022-08-10T20:03:49.478Z,23.17
2022-08-10T20:06:20.432Z,23.11
2022-08-10T20:08:54.498Z,23.07
2022-08-10T20:11:45.883Z,23.02
2022-08-10T20:14:39.175Z,22.73
2022-08-10T20:17:16.143Z,22.66
2022-08-10T20:19:56.158Z,22.54
2022-08-10T20:22:30.388Z,22.51
2022-08-10T20:25:18.159Z,22.36
2022-08-10T20:28:00.933Z,22.34
2022-08-10T20:30:34.724Z,22.16
2022-08-10T20:33:23.271Z,22.10
2022-08-10T20:35:58.421Z,22.03
2022-08-10T20:38:34.234Z,21.96
2022-08-10T20:41:49.205Z,21.89
2022-08-10T20:44:39.311Z,21.81
2022-08-10T20:47:42.604Z,21.92
2022-08-10T20:50:40.146Z,21.70
2022-08-10T20:53:15.284Z,21.53
2022-08-10T20:55:54.878Z,21.36
2022-08-10T20:58:49.900Z,21.24
2022-08-10T21:01:23.448Z,21.26
2022-08-10T21:04:13.794Z,21.29
2022-08-10T21:07:05.563Z,21.32
2022-08-10T21:09:51.181Z,21.21
2022-08-10T21:12:57.628Z,21.17
